sensor_id;sensor_type;location;lat;lon;timestamp;temperature;humidity
51661;DHT22;37741;49.748;8.490;2024-03-17T00:02:20;9.70;84.90
51661;DHT22;37741;49.748;8.490;2024-03-17T00:04:45;9.70;84.90
51661;DHT22;37741;49.748;8.490;2024-03-17T00:07:12;9.70;84.90
51661;DHT22;37741;49.748;8.490;2024-03-17T00:09:38;9.70;84.90
51661;DHT22;37741;49.748;8.490;2024-03-17T00:12:04;9.70;85.00
51661;DHT22;37741;49.748;8.490;2024-03-17T00:14:30;9.60;84.90
51661;DHT22;37741;49.748;8.490;2024-03-17T00:16:55;9.60;84.90
51661;DHT22;37741;49.748;8.490;2024-03-17T00:19:21;9.60;85.00
51661;DHT22;37741;49.748;8.490;2024-03-17T00:21:48;9.60;85.00
51661;DHT22;37741;49.748;8.490;2024-03-17T00:24:16;9.60;85.00
51661;DHT22;37741;49.748;8.490;2024-03-17T00:26:42;9.60;85.00
51661;DHT22;37741;49.748;8.490;2024-03-17T00:29:08;9.60;85.00
51661;DHT22;37741;49.748;8.490;2024-03-17T00:31:34;9.60;85.00
51661;DHT22;37741;49.748;8.490;2024-03-17T00:34:00;9.60;85.00
51661;DHT22;37741;49.748;8.490;2024-03-17T00:36:25;9.60;85.00
51661;DHT22;37741;49.748;8.490;2024-03-17T00:38:51;9.60;85.10
51661;DHT22;37741;49.748;8.490;2024-03-17T00:41:19;9.60;85.10
51661;DHT22;37741;49.748;8.490;2024-03-17T00:43:46;9.50;85.00
51661;DHT22;37741;49.748;8.490;2024-03-17T00:46:12;9.50;85.00
51661;DHT22;37741;49.748;8.490;2024-03-17T00:48:38;9.50;85.10
51661;DHT22;37741;49.748;8.490;2024-03-17T00:51:03;9.60;85.10
51661;DHT22;37741;49.748;8.490;2024-03-17T00:53:29;9.50;85.00
51661;DHT22;37741;49.748;8.490;2024-03-17T00:55:55;9.50;85.10
51661;DHT22;37741;49.748;8.490;2024-03-17T00:58:25;9.50;85.10
51661;DHT22;37741;49.748;8.490;2024-03-17T01:00:51;9.50;85.20
51661;DHT22;37741;49.748;8.490;2024-03-17T01:03:17;9.50;85.20
51661;DHT22;37741;49.748;8.490;2024-03-17T01:05:43;9.50;85.10
51661;DHT22;37741;49.748;8.490;2024-03-17T01:08:14;9.40;85.10
51661;DHT22;37741;49.748;8.490;2024-03-17T01:10:43;9.40;85.00
51661;DHT22;37741;49.748;8.490;2024-03-17T01:13:10;9.40;85.10
51661;DHT22;37741;49.748;8.490;2024-03-17T01:15:36;9.40;85.10
51661;DHT22;37741;49.748;8.490;2024-03-17T01:18:05;9.40;85.10
51661;DHT22;37741;49.748;8.490;2024-03-17T01:20:32;9.40;85.10
51661;DHT22;37741;49.748;8.490;2024-03-17T01:22:59;9.40;85.10
51661;DHT22;37741;49.748;8.490;2024-03-17T01:25:24;9.30;85.00
51661;DHT22;37741;49.748;8.490;2024-03-17T01:27:53;9.30;85.10
51661;DHT22;37741;49.748;8.490;2024-03-17T01:30:19;9.40;85.10
51661;DHT22;37741;49.748;8.490;2024-03-17T01:32:45;9.30;85.00
51661;DHT22;37741;49.748;8.490;2024-03-17T01:35:11;9.40;85.10
51661;DHT22;37741;49.748;8.490;2024-03-17T01:37:39;9.30;85.00
51661;DHT22;37741;49.748;8.490;2024-03-17T01:40:06;9.30;85.00
51661;DHT22;37741;49.748;8.490;2024-03-17T01:42:35;9.20;85.00
51661;DHT22;37741;49.748;8.490;2024-03-17T01:45:00;9.20;85.00
51661;DHT22;37741;49.748;8.490;2024-03-17T01:47:26;9.20;85.00
51661;DHT22;37741;49.748;8.490;2024-03-17T01:49:53;9.20;85.00
51661;DHT22;37741;49.748;8.490;2024-03-17T01:52:21;9.20;85.00
51661;DHT22;37741;49.748;8.490;2024-03-17T01:54:47;9.20;85.00
51661;DHT22;37741;49.748;8.490;2024-03-17T01:57:13;9.20;85.00
51661;DHT22;37741;49.748;8.490;2024-03-17T01:59:39;9.20;85.00
51661;DHT22;37741;49.748;8.490;2024-03-17T02:02:06;9.10;85.00
51661;DHT22;37741;49.748;8.490;2024-03-17T02:04:31;9.10;85.00
51661;DHT22;37741;49.748;8.490;2024-03-17T02:06:57;9.10;85.00
51661;DHT22;37741;49.748;8.490;2024-03-17T02:09:23;9.10;85.00
51661;DHT22;37741;49.748;8.490;2024-03-17T02:11:48;9.10;85.00
51661;DHT22;37741;49.748;8.490;2024-03-17T02:14:14;9.10;85.00
51661;DHT22;37741;49.748;8.490;2024-03-17T02:16:43;9.10;85.00
51661;DHT22;37741;49.748;8.490;2024-03-17T02:19:08;9.10;85.00
51661;DHT22;37741;49.748;8.490;2024-03-17T02:21:35;9.00;84.90
51661;DHT22;37741;49.748;8.490;2024-03-17T02:24:00;9.00;85.00
51661;DHT22;37741;49.748;8.490;2024-03-17T02:26:28;9.00;84.90
51661;DHT22;37741;49.748;8.490;2024-03-17T02:28:53;9.00;85.00
51661;DHT22;37741;49.748;8.490;2024-03-17T02:31:19;9.00;84.90
51661;DHT22;37741;49.748;8.490;2024-03-17T02:33:45;8.90;84.90
51661;DHT22;37741;49.748;8.490;2024-03-17T02:36:12;8.90;84.90
51661;DHT22;37741;49.748;8.490;2024-03-17T02:38:41;8.90;85.60
51661;DHT22;37741;49.748;8.490;2024-03-17T02:41:26;8.90;84.90
51661;DHT22;37741;49.748;8.490;2024-03-17T02:43:51;8.90;84.90
51661;DHT22;37741;49.748;8.490;2024-03-17T02:46:18;8.80;84.90
51661;DHT22;37741;49.748;8.490;2024-03-17T02:48:47;8.90;84.90
51661;DHT22;37741;49.748;8.490;2024-03-17T02:51:14;8.80;85.50
51661;DHT22;37741;49.748;8.490;2024-03-17T02:53:44;8.80;84.90
51661;DHT22;37741;49.748;8.490;2024-03-17T02:56:11;8.80;84.90
51661;DHT22;37741;49.748;8.490;2024-03-17T02:58:38;8.80;84.90
51661;DHT22;37741;49.748;8.490;2024-03-17T03:01:07;8.80;84.90
51661;DHT22;37741;49.748;8.490;2024-03-17T03:03:33;8.70;84.90
51661;DHT22;37741;49.748;8.490;2024-03-17T03:05:59;8.70;84.90
51661;DHT22;37741;49.748;8.490;2024-03-17T03:08:32;8.70;84.90
51661;DHT22;37741;49.748;8.490;2024-03-17T03:10:59;8.70;84.80
51661;DHT22;37741;49.748;8.490;2024-03-17T03:13:25;8.70;84.90
51661;DHT22;37741;49.748;8.490;2024-03-17T03:15:51;8.60;84.80
51661;DHT22;37741;49.748;8.490;2024-03-17T03:18:17;8.60;84.80
51661;DHT22;37741;49.748;8.490;2024-03-17T03:20:43;8.60;84.70
51661;DHT22;37741;49.748;8.490;2024-03-17T03:23:09;8.60;84.80
51661;DHT22;37741;49.748;8.490;2024-03-17T03:25:35;8.60;84.80
51661;DHT22;37741;49.748;8.490;2024-03-17T03:28:00;8.60;84.80
51661;DHT22;37741;49.748;8.490;2024-03-17T03:30:27;8.50;84.70
51661;DHT22;37741;49.748;8.490;2024-03-17T03:32:53;8.50;84.80
51661;DHT22;37741;49.748;8.490;2024-03-17T03:35:18;8.50;84.70
51661;DHT22;37741;49.748;8.490;2024-03-17T03:37:45;8.50;84.80
51661;DHT22;37741;49.748;8.490;2024-03-17T03:40:11;8.50;85.40
51661;DHT22;37741;49.748;8.490;2024-03-17T03:42:43;8.50;84.80
51661;DHT22;37741;49.748;8.490;2024-03-17T03:45:10;8.50;84.80
51661;DHT22;37741;49.748;8.490;2024-03-17T03:47:42;8.40;84.80
51661;DHT22;37741;49.748;8.490;2024-03-17T03:50:11;8.40;84.80
51661;DHT22;37741;49.748;8.490;2024-03-17T03:52:37;8.40;84.90
51661;DHT22;37741;49.748;8.490;2024-03-17T03:55:04;8.40;84.80
51661;DHT22;37741;49.748;8.490;2024-03-17T03:57:33;8.40;84.90
51661;DHT22;37741;49.748;8.490;2024-03-17T04:00:00;8.40;84.90
51661;DHT22;37741;49.748;8.490;2024-03-17T04:02:26;8.30;84.80
51661;DHT22;37741;49.748;8.490;2024-03-17T04:04:57;8.30;84.80
51661;DHT22;37741;49.748;8.490;2024-03-17T04:07:22;8.30;84.80
51661;DHT22;37741;49.748;8.490;2024-03-17T04:09:48;8.30;84.90
51661;DHT22;37741;49.748;8.490;2024-03-17T04:12:14;8.30;84.90
51661;DHT22;37741;49.748;8.490;2024-03-17T04:14:39;8.30;84.90
51661;DHT22;37741;49.748;8.490;2024-03-17T04:17:05;8.30;85.00
51661;DHT22;37741;49.748;8.490;2024-03-17T04:19:31;8.20;84.90
51661;DHT22;37741;49.748;8.490;2024-03-17T04:21:57;8.20;84.90
51661;DHT22;37741;49.748;8.490;2024-03-17T04:24:22;8.20;84.90
51661;DHT22;37741;49.748;8.490;2024-03-17T04:26:48;8.20;84.90
51661;DHT22;37741;49.748;8.490;2024-03-17T04:29:13;8.20;84.90
51661;DHT22;37741;49.748;8.490;2024-03-17T04:31:40;8.20;84.90
51661;DHT22;37741;49.748;8.490;2024-03-17T04:34:07;8.20;84.90
51661;DHT22;37741;49.748;8.490;2024-03-17T04:36:33;8.10;84.90
51661;DHT22;37741;49.748;8.490;2024-03-17T04:38:58;8.10;84.90
51661;DHT22;37741;49.748;8.490;2024-03-17T04:41:24;8.10;84.80
51661;DHT22;37741;49.748;8.490;2024-03-17T04:43:49;8.10;84.80
51661;DHT22;37741;49.748;8.490;2024-03-17T04:46:15;8.10;84.90
51661;DHT22;37741;49.748;8.490;2024-03-17T04:48:41;8.10;84.90
51661;DHT22;37741;49.748;8.490;2024-03-17T04:51:07;8.00;84.70
51661;DHT22;37741;49.748;8.490;2024-03-17T04:53:32;8.00;84.80
51661;DHT22;37741;49.748;8.490;2024-03-17T04:56:02;8.00;84.80
51661;DHT22;37741;49.748;8.490;2024-03-17T04:58:30;8.00;84.70
51661;DHT22;37741;49.748;8.490;2024-03-17T05:00:56;8.00;84.70
51661;DHT22;37741;49.748;8.490;2024-03-17T05:03:22;8.00;84.80
51661;DHT22;37741;49.748;8.490;2024-03-17T05:05:48;7.90;84.80
51661;DHT22;37741;49.748;8.490;2024-03-17T05:08:13;7.90;84.70
51661;DHT22;37741;49.748;8.490;2024-03-17T05:10:39;7.90;84.70
51661;DHT22;37741;49.748;8.490;2024-03-17T05:13:04;7.90;84.80
51661;DHT22;37741;49.748;8.490;2024-03-17T05:15:30;7.90;84.70
51661;DHT22;37741;49.748;8.490;2024-03-17T05:17:56;7.90;84.80
51661;DHT22;37741;49.748;8.490;2024-03-17T05:20:22;7.90;84.80
51661;DHT22;37741;49.748;8.490;2024-03-17T05:22:49;7.80;84.70
51661;DHT22;37741;49.748;8.490;2024-03-17T05:25:15;7.80;84.80
51661;DHT22;37741;49.748;8.490;2024-03-17T05:27:40;7.80;84.80
51661;DHT22;37741;49.748;8.490;2024-03-17T05:30:06;7.80;84.80
51661;DHT22;37741;49.748;8.490;2024-03-17T05:32:34;7.80;84.90
51661;DHT22;37741;49.748;8.490;2024-03-17T05:34:59;7.80;84.90
51661;DHT22;37741;49.748;8.490;2024-03-17T05:37:25;7.70;84.90
51661;DHT22;37741;49.748;8.490;2024-03-17T05:39:51;7.70;84.90
51661;DHT22;37741;49.748;8.490;2024-03-17T05:42:16;7.80;84.90
51661;DHT22;37741;49.748;8.490;2024-03-17T05:44:42;7.70;84.90
51661;DHT22;37741;49.748;8.490;2024-03-17T05:47:18;7.70;85.00
51661;DHT22;37741;49.748;8.490;2024-03-17T05:49:44;7.70;85.00
51661;DHT22;37741;49.748;8.490;2024-03-17T05:52:11;7.70;85.60
51661;DHT22;37741;49.748;8.490;2024-03-17T05:54:37;7.70;85.00
51661;DHT22;37741;49.748;8.490;2024-03-17T05:57:03;7.70;85.00
51661;DHT22;37741;49.748;8.490;2024-03-17T05:59:30;7.70;85.00
51661;DHT22;37741;49.748;8.490;2024-03-17T06:01:56;7.70;85.00
51661;DHT22;37741;49.748;8.490;2024-03-17T06:04:22;7.70;85.00
51661;DHT22;37741;49.748;8.490;2024-03-17T06:06:49;7.60;85.00
51661;DHT22;37741;49.748;8.490;2024-03-17T06:09:15;7.60;85.00
51661;DHT22;37741;49.748;8.490;2024-03-17T06:11:43;7.60;85.00
51661;DHT22;37741;49.748;8.490;2024-03-17T06:14:09;7.60;85.00
51661;DHT22;37741;49.748;8.490;2024-03-17T06:16:37;7.60;85.10
51661;DHT22;37741;49.748;8.490;2024-03-17T06:19:03;7.60;85.10
51661;DHT22;37741;49.748;8.490;2024-03-17T06:21:29;7.60;85.10
51661;DHT22;37741;49.748;8.490;2024-03-17T06:23:54;7.60;85.10
51661;DHT22;37741;49.748;8.490;2024-03-17T06:26:20;7.60;85.20
51661;DHT22;37741;49.748;8.490;2024-03-17T06:28:49;7.60;85.30
51661;DHT22;37741;49.748;8.490;2024-03-17T06:31:14;7.60;85.30
51661;DHT22;37741;49.748;8.490;2024-03-17T06:33:41;7.50;85.20
51661;DHT22;37741;49.748;8.490;2024-03-17T06:36:07;7.50;85.20
51661;DHT22;37741;49.748;8.490;2024-03-17T06:38:33;7.50;85.30
51661;DHT22;37741;49.748;8.490;2024-03-17T06:40:59;7.50;85.30
51661;DHT22;37741;49.748;8.490;2024-03-17T06:43:24;7.50;85.30
51661;DHT22;37741;49.748;8.490;2024-03-17T06:45:57;7.50;85.40
51661;DHT22;37741;49.748;8.490;2024-03-17T06:48:24;7.50;85.40
51661;DHT22;37741;49.748;8.490;2024-03-17T06:50:50;7.50;85.50
51661;DHT22;37741;49.748;8.490;2024-03-17T06:53:20;7.50;85.50
51661;DHT22;37741;49.748;8.490;2024-03-17T06:58:18;7.50;85.60
51661;DHT22;37741;49.748;8.490;2024-03-17T07:00:58;7.50;85.70
51661;DHT22;37741;49.748;8.490;2024-03-17T07:03:30;7.50;85.70
51661;DHT22;37741;49.748;8.490;2024-03-17T07:05:57;7.40;85.70
51661;DHT22;37741;49.748;8.490;2024-03-17T07:08:23;7.50;85.80
51661;DHT22;37741;49.748;8.490;2024-03-17T07:11:05;7.50;85.90
51661;DHT22;37741;49.748;8.490;2024-03-17T07:13:34;7.40;85.90
51661;DHT22;37741;49.748;8.490;2024-03-17T07:16:01;7.40;85.90
51661;DHT22;37741;49.748;8.490;2024-03-17T07:18:31;7.40;86.00
51661;DHT22;37741;49.748;8.490;2024-03-17T07:21:02;7.50;86.10
51661;DHT22;37741;49.748;8.490;2024-03-17T07:23:31;7.40;86.10
51661;DHT22;37741;49.748;8.490;2024-03-17T07:25:58;7.50;86.80
51661;DHT22;37741;49.748;8.490;2024-03-17T07:28:24;7.50;86.30
51661;DHT22;37741;49.748;8.490;2024-03-17T07:30:55;7.50;86.30
51661;DHT22;37741;49.748;8.490;2024-03-17T07:33:21;7.40;86.30
51661;DHT22;37741;49.748;8.490;2024-03-17T07:35:51;7.40;86.30
51661;DHT22;37741;49.748;8.490;2024-03-17T07:38:18;7.40;86.30
51661;DHT22;37741;49.748;8.490;2024-03-17T07:40:45;7.40;86.30
51661;DHT22;37741;49.748;8.490;2024-03-17T07:43:11;7.40;86.30
51661;DHT22;37741;49.748;8.490;2024-03-17T07:45:37;7.40;86.30
51661;DHT22;37741;49.748;8.490;2024-03-17T07:48:03;7.50;86.40
51661;DHT22;37741;49.748;8.490;2024-03-17T07:50:29;7.40;86.30
51661;DHT22;37741;49.748;8.490;2024-03-17T07:52:54;7.40;86.30
51661;DHT22;37741;49.748;8.490;2024-03-17T07:55:20;7.40;86.40
51661;DHT22;37741;49.748;8.490;2024-03-17T07:57:45;7.40;86.40
51661;DHT22;37741;49.748;8.490;2024-03-17T08:00:11;7.50;86.40
51661;DHT22;37741;49.748;8.490;2024-03-17T08:02:46;7.50;86.40
51661;DHT22;37741;49.748;8.490;2024-03-17T08:05:11;7.50;86.40
51661;DHT22;37741;49.748;8.490;2024-03-17T08:07:37;7.50;86.30
51661;DHT22;37741;49.748;8.490;2024-03-17T08:10:03;7.50;86.40
51661;DHT22;37741;49.748;8.490;2024-03-17T08:12:29;7.50;86.40
51661;DHT22;37741;49.748;8.490;2024-03-17T08:14:55;7.50;86.40
51661;DHT22;37741;49.748;8.490;2024-03-17T08:17:20;7.50;86.40
51661;DHT22;37741;49.748;8.490;2024-03-17T08:19:47;7.50;86.40
51661;DHT22;37741;49.748;8.490;2024-03-17T08:22:13;7.50;86.30
51661;DHT22;37741;49.748;8.490;2024-03-17T08:24:40;7.60;86.30
51661;DHT22;37741;49.748;8.490;2024-03-17T08:27:05;7.60;86.10
51661;DHT22;37741;49.748;8.490;2024-03-17T08:29:32;7.60;86.40
51661;DHT22;37741;49.748;8.490;2024-03-17T08:31:58;7.60;86.90
51661;DHT22;37741;49.748;8.490;2024-03-17T08:34:24;7.60;86.60
51661;DHT22;37741;49.748;8.490;2024-03-17T08:36:50;7.60;86.40
51661;DHT22;37741;49.748;8.490;2024-03-17T08:39:16;7.60;86.30
51661;DHT22;37741;49.748;8.490;2024-03-17T08:41:42;7.70;86.00
51661;DHT22;37741;49.748;8.490;2024-03-17T08:44:09;7.70;86.00
51661;DHT22;37741;49.748;8.490;2024-03-17T08:46:35;7.70;85.70
51661;DHT22;37741;49.748;8.490;2024-03-17T08:49:01;7.70;85.80
51661;DHT22;37741;49.748;8.490;2024-03-17T08:51:26;7.70;85.60
51661;DHT22;37741;49.748;8.490;2024-03-17T08:53:53;7.70;85.80
51661;DHT22;37741;49.748;8.490;2024-03-17T08:56:18;7.70;85.50
51661;DHT22;37741;49.748;8.490;2024-03-17T08:58:46;7.70;85.60
51661;DHT22;37741;49.748;8.490;2024-03-17T09:01:13;7.70;85.70
51661;DHT22;37741;49.748;8.490;2024-03-17T09:03:39;7.80;86.30
51661;DHT22;37741;49.748;8.490;2024-03-17T09:06:16;7.80;85.60
51661;DHT22;37741;49.748;8.490;2024-03-17T09:08:42;7.80;85.70
51661;DHT22;37741;49.748;8.490;2024-03-17T09:11:12;7.90;84.60
51661;DHT22;37741;49.748;8.490;2024-03-17T09:13:38;7.90;84.90
51661;DHT22;37741;49.748;8.490;2024-03-17T09:16:04;8.00;85.10
51661;DHT22;37741;49.748;8.490;2024-03-17T09:18:31;7.90;85.10
51661;DHT22;37741;49.748;8.490;2024-03-17T09:21:04;7.90;85.20
51661;DHT22;37741;49.748;8.490;2024-03-17T09:23:31;8.00;85.40
51661;DHT22;37741;49.748;8.490;2024-03-17T09:26:03;8.00;85.40
51661;DHT22;37741;49.748;8.490;2024-03-17T09:28:30;8.00;86.40
51661;DHT22;37741;49.748;8.490;2024-03-17T09:30:57;8.00;85.60
51661;DHT22;37741;49.748;8.490;2024-03-17T09:33:24;8.00;85.60
51661;DHT22;37741;49.748;8.490;2024-03-17T09:36:09;8.00;86.70
51661;DHT22;37741;49.748;8.490;2024-03-17T09:38:39;8.10;86.00
51661;DHT22;37741;49.748;8.490;2024-03-17T09:41:06;8.20;85.30
51661;DHT22;37741;49.748;8.490;2024-03-17T09:43:34;8.20;85.50
51661;DHT22;37741;49.748;8.490;2024-03-17T09:46:02;8.20;85.00
51661;DHT22;37741;49.748;8.490;2024-03-17T09:48:28;8.30;84.50
51661;DHT22;37741;49.748;8.490;2024-03-17T09:51:01;8.30;84.60
51661;DHT22;37741;49.748;8.490;2024-03-17T09:53:32;8.30;84.70
51661;DHT22;37741;49.748;8.490;2024-03-17T09:56:12;8.30;84.70
51661;DHT22;37741;49.748;8.490;2024-03-17T09:58:39;8.40;84.60
51661;DHT22;37741;49.748;8.490;2024-03-17T10:01:05;8.40;84.60
51661;DHT22;37741;49.748;8.490;2024-03-17T10:03:51;8.40;85.40
51661;DHT22;37741;49.748;8.490;2024-03-17T10:06:22;8.50;84.30
51661;DHT22;37741;49.748;8.490;2024-03-17T10:11:18;8.50;84.10
51661;DHT22;37741;49.748;8.490;2024-03-17T10:13:45;8.50;84.00
51661;DHT22;37741;49.748;8.490;2024-03-17T10:16:32;8.50;84.10
51661;DHT22;37741;49.748;8.490;2024-03-17T10:19:11;8.60;84.20
51661;DHT22;37741;49.748;8.490;2024-03-17T10:21:46;8.60;84.20
51661;DHT22;37741;49.748;8.490;2024-03-17T10:24:23;8.60;84.10
51661;DHT22;37741;49.748;8.490;2024-03-17T10:26:51;8.60;84.00
51661;DHT22;37741;49.748;8.490;2024-03-17T10:29:25;8.70;84.50
51661;DHT22;37741;49.748;8.490;2024-03-17T10:31:54;8.70;84.30
51661;DHT22;37741;49.748;8.490;2024-03-17T10:34:21;8.70;83.90
51661;DHT22;37741;49.748;8.490;2024-03-17T10:37:13;8.80;84.00
51661;DHT22;37741;49.748;8.490;2024-03-17T10:39:52;8.80;83.80
51661;DHT22;37741;49.748;8.490;2024-03-17T10:42:29;8.80;83.70
51661;DHT22;37741;49.748;8.490;2024-03-17T10:44:57;8.80;83.60
51661;DHT22;37741;49.748;8.490;2024-03-17T10:47:27;8.90;83.60
51661;DHT22;37741;49.748;8.490;2024-03-17T10:49:54;8.90;83.50
51661;DHT22;37741;49.748;8.490;2024-03-17T10:52:21;9.00;83.30
51661;DHT22;37741;49.748;8.490;2024-03-17T10:54:52;9.00;83.40
51661;DHT22;37741;49.748;8.490;2024-03-17T11:00:04;9.10;83.40
51661;DHT22;37741;49.748;8.490;2024-03-17T11:02:32;9.10;83.70
51661;DHT22;37741;49.748;8.490;2024-03-17T11:05:07;9.10;83.70
51661;DHT22;37741;49.748;8.490;2024-03-17T11:07:39;9.20;84.00
51661;DHT22;37741;49.748;8.490;2024-03-17T11:10:15;9.20;84.20
51661;DHT22;37741;49.748;8.490;2024-03-17T11:12:53;9.20;84.40
51661;DHT22;37741;49.748;8.490;2024-03-17T11:20:38;9.40;84.20
51661;DHT22;37741;49.748;8.490;2024-03-17T11:23:05;9.40;83.90
51661;DHT22;37741;49.748;8.490;2024-03-17T11:25:38;9.50;84.20
51661;DHT22;37741;49.748;8.490;2024-03-17T11:28:05;9.50;83.70
51661;DHT22;37741;49.748;8.490;2024-03-17T11:30:42;9.50;83.60
51661;DHT22;37741;49.748;8.490;2024-03-17T11:39:08;9.70;83.70
51661;DHT22;37741;49.748;8.490;2024-03-17T11:41:48;9.70;83.70
51661;DHT22;37741;49.748;8.490;2024-03-17T11:44:25;9.70;83.60
51661;DHT22;37741;49.748;8.490;2024-03-17T11:49:28;9.80;83.50
51661;DHT22;37741;49.748;8.490;2024-03-17T11:51:57;9.80;83.20
51661;DHT22;37741;49.748;8.490;2024-03-17T11:54:24;9.90;82.70
51661;DHT22;37741;49.748;8.490;2024-03-17T11:56:53;9.90;82.30
51661;DHT22;37741;49.748;8.490;2024-03-17T11:59:20;10.00;82.70
51661;DHT22;37741;49.748;8.490;2024-03-17T12:01:47;10.00;82.80
51661;DHT22;37741;49.748;8.490;2024-03-17T12:04:14;10.00;82.10
51661;DHT22;37741;49.748;8.490;2024-03-17T12:06:43;10.10;82.10
51661;DHT22;37741;49.748;8.490;2024-03-17T12:09:30;10.10;82.50
51661;DHT22;37741;49.748;8.490;2024-03-17T12:12:01;10.10;82.30
51661;DHT22;37741;49.748;8.490;2024-03-17T12:14:28;10.20;81.90
51661;DHT22;37741;49.748;8.490;2024-03-17T12:16:59;10.20;81.40
51661;DHT22;37741;49.748;8.490;2024-03-17T12:19:25;10.20;81.90
51661;DHT22;37741;49.748;8.490;2024-03-17T12:21:55;10.30;82.10
51661;DHT22;37741;49.748;8.490;2024-03-17T12:24:25;10.30;82.40
51661;DHT22;37741;49.748;8.490;2024-03-17T12:26:53;10.40;83.10
51661;DHT22;37741;49.748;8.490;2024-03-17T12:29:30;10.40;82.40
51661;DHT22;37741;49.748;8.490;2024-03-17T12:31:59;10.40;82.20
51661;DHT22;37741;49.748;8.490;2024-03-17T12:34:27;10.50;82.20
51661;DHT22;37741;49.748;8.490;2024-03-17T12:36:55;10.50;82.00
51661;DHT22;37741;49.748;8.490;2024-03-17T12:39:27;10.50;82.00
51661;DHT22;37741;49.748;8.490;2024-03-17T12:44:52;10.60;82.90
51661;DHT22;37741;49.748;8.490;2024-03-17T12:47:23;10.60;81.80
51661;DHT22;37741;49.748;8.490;2024-03-17T12:49:53;10.70;80.60
51661;DHT22;37741;49.748;8.490;2024-03-17T12:52:33;10.70;81.10
51661;DHT22;37741;49.748;8.490;2024-03-17T12:55:05;10.70;81.60
51661;DHT22;37741;49.748;8.490;2024-03-17T12:58:11;10.80;81.50
51661;DHT22;37741;49.748;8.490;2024-03-17T13:01:03;10.80;81.30
51661;DHT22;37741;49.748;8.490;2024-03-17T13:03:34;10.80;81.30
51661;DHT22;37741;49.748;8.490;2024-03-17T13:06:01;10.90;81.10
51661;DHT22;37741;49.748;8.490;2024-03-17T13:08:34;10.90;81.10
51661;DHT22;37741;49.748;8.490;2024-03-17T13:11:00;10.90;81.00
51661;DHT22;37741;49.748;8.490;2024-03-17T13:13:26;10.90;80.70
51661;DHT22;37741;49.748;8.490;2024-03-17T13:15:52;11.00;79.50
51661;DHT22;37741;49.748;8.490;2024-03-17T13:18:18;11.10;80.10
51661;DHT22;37741;49.748;8.490;2024-03-17T13:20:44;11.10;80.50
51661;DHT22;37741;49.748;8.490;2024-03-17T13:23:11;11.10;80.80
51661;DHT22;37741;49.748;8.490;2024-03-17T13:25:36;11.10;80.40
51661;DHT22;37741;49.748;8.490;2024-03-17T13:28:04;11.20;80.60
51661;DHT22;37741;49.748;8.490;2024-03-17T13:30:30;11.20;80.50
51661;DHT22;37741;49.748;8.490;2024-03-17T13:32:57;11.20;80.50
51661;DHT22;37741;49.748;8.490;2024-03-17T13:35:27;11.30;80.50
51661;DHT22;37741;49.748;8.490;2024-03-17T13:37:54;11.30;80.30
51661;DHT22;37741;49.748;8.490;2024-03-17T13:40:21;11.40;80.10
51661;DHT22;37741;49.748;8.490;2024-03-17T13:42:52;11.40;80.10
51661;DHT22;37741;49.748;8.490;2024-03-17T13:45:19;11.40;80.00
51661;DHT22;37741;49.748;8.490;2024-03-17T13:47:54;11.40;78.30
51661;DHT22;37741;49.748;8.490;2024-03-17T13:50:21;11.50;78.50
51661;DHT22;37741;49.748;8.490;2024-03-17T13:52:47;11.50;78.70
51661;DHT22;37741;49.748;8.490;2024-03-17T13:55:15;11.50;79.50
51661;DHT22;37741;49.748;8.490;2024-03-17T13:57:44;11.50;79.60
51661;DHT22;37741;49.748;8.490;2024-03-17T14:00:11;11.60;79.80
51661;DHT22;37741;49.748;8.490;2024-03-17T14:02:42;11.60;79.60
51661;DHT22;37741;49.748;8.490;2024-03-17T14:05:12;11.60;79.60
51661;DHT22;37741;49.748;8.490;2024-03-17T14:07:38;11.70;79.50
51661;DHT22;37741;49.748;8.490;2024-03-17T14:10:05;11.70;79.40
51661;DHT22;37741;49.748;8.490;2024-03-17T14:12:31;11.70;79.30
51661;DHT22;37741;49.748;8.490;2024-03-17T14:14:56;11.70;79.40
51661;DHT22;37741;49.748;8.490;2024-03-17T14:17:22;11.80;79.60
51661;DHT22;37741;49.748;8.490;2024-03-17T14:19:48;11.80;80.10
51661;DHT22;37741;49.748;8.490;2024-03-17T14:22:13;11.80;79.40
51661;DHT22;37741;49.748;8.490;2024-03-17T14:24:39;11.80;79.10
51661;DHT22;37741;49.748;8.490;2024-03-17T14:27:06;11.80;79.10
51661;DHT22;37741;49.748;8.490;2024-03-17T14:29:32;11.80;79.00
51661;DHT22;37741;49.748;8.490;2024-03-17T14:31:57;11.80;79.00
51661;DHT22;37741;49.748;8.490;2024-03-17T14:34:23;11.90;78.90
51661;DHT22;37741;49.748;8.490;2024-03-17T14:36:49;11.90;78.60
51661;DHT22;37741;49.748;8.490;2024-03-17T14:39:14;11.90;78.20
51661;DHT22;37741;49.748;8.490;2024-03-17T14:41:40;11.90;78.40
51661;DHT22;37741;49.748;8.490;2024-03-17T14:44:05;12.00;78.20
51661;DHT22;37741;49.748;8.490;2024-03-17T14:46:31;12.00;78.10
51661;DHT22;37741;49.748;8.490;2024-03-17T14:48:57;12.00;78.10
51661;DHT22;37741;49.748;8.490;2024-03-17T14:51:23;12.00;77.70
51661;DHT22;37741;49.748;8.490;2024-03-17T14:53:49;12.10;78.20
51661;DHT22;37741;49.748;8.490;2024-03-17T14:56:17;12.10;78.20
51661;DHT22;37741;49.748;8.490;2024-03-17T14:58:44;12.20;78.30
51661;DHT22;37741;49.748;8.490;2024-03-17T15:01:11;12.20;78.10
51661;DHT22;37741;49.748;8.490;2024-03-17T15:03:37;12.20;78.10
51661;DHT22;37741;49.748;8.490;2024-03-17T15:06:12;12.30;77.60
51661;DHT22;37741;49.748;8.490;2024-03-17T15:08:38;12.20;77.50
51661;DHT22;37741;49.748;8.490;2024-03-17T15:11:04;12.30;77.70
51661;DHT22;37741;49.748;8.490;2024-03-17T15:13:33;12.40;77.20
51661;DHT22;37741;49.748;8.490;2024-03-17T15:15:59;12.40;77.20
51661;DHT22;37741;49.748;8.490;2024-03-17T15:18:25;12.40;77.50
51661;DHT22;37741;49.748;8.490;2024-03-17T15:20:53;12.50;77.60
51661;DHT22;37741;49.748;8.490;2024-03-17T15:23:20;12.50;77.40
51661;DHT22;37741;49.748;8.490;2024-03-17T15:25:46;12.60;77.30
51661;DHT22;37741;49.748;8.490;2024-03-17T15:28:18;12.60;77.30
51661;DHT22;37741;49.748;8.490;2024-03-17T15:30:44;12.70;77.10
51661;DHT22;37741;49.748;8.490;2024-03-17T15:33:11;12.70;76.90
51661;DHT22;37741;49.748;8.490;2024-03-17T15:35:36;12.80;76.70
51661;DHT22;37741;49.748;8.490;2024-03-17T15:38:02;12.90;76.90
51661;DHT22;37741;49.748;8.490;2024-03-17T15:40:29;12.90;76.70
51661;DHT22;37741;49.748;8.490;2024-03-17T15:42:56;12.90;77.00
51661;DHT22;37741;49.748;8.490;2024-03-17T15:45:24;13.00;76.10
51661;DHT22;37741;49.748;8.490;2024-03-17T15:47:50;13.00;76.00
51661;DHT22;37741;49.748;8.490;2024-03-17T15:50:16;13.00;75.90
51661;DHT22;37741;49.748;8.490;2024-03-17T15:52:42;13.10;75.70
51661;DHT22;37741;49.748;8.490;2024-03-17T15:55:08;13.10;75.30
51661;DHT22;37741;49.748;8.490;2024-03-17T15:57:34;13.10;75.10
51661;DHT22;37741;49.748;8.490;2024-03-17T16:00:00;13.10;74.20
51661;DHT22;37741;49.748;8.490;2024-03-17T16:02:26;13.10;75.40
51661;DHT22;37741;49.748;8.490;2024-03-17T16:04:52;13.20;74.10
51661;DHT22;37741;49.748;8.490;2024-03-17T16:07:19;13.20;73.40
51661;DHT22;37741;49.748;8.490;2024-03-17T16:09:46;13.20;73.10
51661;DHT22;37741;49.748;8.490;2024-03-17T16:12:16;13.20;73.50